createdAt,value
2023-02-08T00:00:41.697Z,102610.64
2023-02-08T00:04:09.193Z,102606.38
2023-02-08T00:07:38.200Z,102607.81
2023-02-08T00:11:06.325Z,102609.48
2023-02-08T00:14:36.284Z,102608.41
2023-02-08T00:18:04.434Z,102607.48
2023-02-08T00:21:15.598Z,102612.31
2023-02-08T00:24:24.326Z,102612.61
2023-02-08T00:27:52.129Z,102612.86
2023-02-08T00:31:19.948Z,102616.06
2023-02-08T00:34:47.408Z,102609.23
2023-02-08T00:38:11.060Z,102607.52
2023-02-08T00:41:39.056Z,102602.58
2023-02-08T00:45:07.285Z,102600.70
2023-02-08T00:48:34.917Z,102603.23
2023-02-08T00:51:43.239Z,102603.77
2023-02-08T00:55:11.047Z,102597.27
2023-02-08T00:58:38.722Z,102600.14
2023-02-08T01:02:06.487Z,102598.95
2023-02-08T01:04:55.241Z,102603.25
2023-02-08T01:08:23.388Z,102602.20
2023-02-08T01:11:50.959Z,102605.73
2023-02-08T01:14:59.576Z,102608.77
2023-02-08T01:18:08.144Z,102607.67
2023-02-08T01:21:16.832Z,102604.55
2023-02-08T01:24:25.725Z,102609.14
2023-02-08T01:27:53.617Z,102612.87
2023-02-08T01:31:21.153Z,102615.20
2023-02-08T01:34:29.821Z,102620.46
2023-02-08T01:37:57.500Z,102619.80
2023-02-08T01:41:25.125Z,102617.17
2023-02-08T01:44:52.864Z,102617.73
2023-02-08T01:48:21.358Z,102613.53
2023-02-08T01:51:49.356Z,102617.77
2023-02-08T01:54:19.204Z,102620.43
2023-02-08T01:57:46.962Z,102625.40
2023-02-08T02:01:14.551Z,102620.60
2023-02-08T02:04:02.796Z,102619.55
2023-02-08T02:07:30.964Z,102614.64
2023-02-08T02:10:20.090Z,102610.95
2023-02-08T02:13:47.828Z,102623.53
2023-02-08T02:16:56.330Z,102621.95
2023-02-08T02:20:04.213Z,102621.00
2023-02-08T02:23:32.022Z,102619.21
2023-02-08T02:26:55.736Z,102615.19
2023-02-08T02:30:23.439Z,102616.41
2023-02-08T02:33:51.323Z,102622.08
2023-02-08T02:37:07.745Z,102623.29
2023-02-08T02:39:55.976Z,102627.17
2023-02-08T02:42:52.301Z,102638.98
2023-02-08T02:46:20.122Z,102644.11
2023-02-08T02:49:29.871Z,102643.90
2023-02-08T02:52:57.920Z,102651.30
2023-02-08T02:56:09.605Z,102648.77
2023-02-08T02:59:18.265Z,102647.72
2023-02-08T03:02:41.902Z,102649.75
2023-02-08T03:05:46.434Z,102657.27
2023-02-08T03:08:54.670Z,102656.20
2023-02-08T03:11:46.469Z,102667.06
2023-02-08T03:15:14.345Z,102669.09
2023-02-08T03:18:22.543Z,102671.62
2023-02-08T03:21:50.333Z,102675.42
2023-02-08T03:25:17.902Z,102677.45
2023-02-08T03:28:14.111Z,102679.52
2023-02-08T03:31:21.076Z,102683.54
2023-02-08T03:34:48.772Z,102684.90
2023-02-08T03:37:52.782Z,102678.23
2023-02-08T03:40:41.640Z,102681.91
2023-02-08T03:44:08.995Z,102678.67
2023-02-08T03:46:59.112Z,102682.86
2023-02-08T03:50:26.715Z,102675.02
2023-02-08T03:53:54.568Z,102678.96
2023-02-08T03:57:22.157Z,102685.42
2023-02-08T04:00:49.986Z,102691.47
2023-02-08T04:04:01.582Z,102697.40
2023-02-08T04:07:09.484Z,102700.66
2023-02-08T04:10:37.050Z,102709.98
2023-02-08T04:14:06.277Z,102715.92
2023-02-08T04:17:33.939Z,102711.94
2023-02-08T04:21:01.778Z,102705.64
2023-02-08T04:24:05.267Z,102712.60
2023-02-08T04:27:33.078Z,102723.71
2023-02-08T04:30:56.259Z,102723.36
2023-02-08T04:34:24.087Z,102731.92
2023-02-08T04:37:51.674Z,102723.94
2023-02-08T04:41:19.447Z,102723.28
2023-02-08T04:44:35.850Z,102720.75
2023-02-08T04:47:45.545Z,102722.49
2023-02-08T04:51:13.227Z,102731.90
2023-02-08T04:54:41.100Z,102739.80
2023-02-08T04:57:50.881Z,102742.40
2023-02-08T05:00:59.103Z,102735.52
2023-02-08T05:04:27.068Z,102737.73
2023-02-08T05:07:51.326Z,102749.43
2023-02-08T05:11:19.076Z,102755.34
2023-02-08T05:14:46.664Z,102762.17
2023-02-08T05:18:14.721Z,102763.54
2023-02-08T05:21:42.384Z,102764.37
2023-02-08T05:25:10.330Z,102766.46
2023-02-08T05:28:37.835Z,102770.48
2023-02-08T05:31:28.006Z,102773.98
2023-02-08T05:34:37.165Z,102779.11
2023-02-08T05:38:04.790Z,102780.51
2023-02-08T05:41:32.754Z,102783.82
2023-02-08T05:44:41.175Z,102786.80
2023-02-08T05:48:04.475Z,102790.75
2023-02-08T05:51:32.266Z,102792.56
2023-02-08T05:54:40.650Z,102795.84
2023-02-08T05:58:08.613Z,102801.70
2023-02-08T06:01:24.313Z,102803.52
2023-02-08T06:04:48.598Z,102802.94
2023-02-08T06:08:17.145Z,102805.45
2023-02-08T06:11:35.599Z,102808.62
2023-02-08T06:14:59.444Z,102806.99
2023-02-08T06:18:27.445Z,102807.55
2023-02-08T06:20:58.525Z,102808.84
2023-02-08T06:24:26.294Z,102813.02
2023-02-08T06:27:31.646Z,102819.77
2023-02-08T06:30:59.822Z,102825.84
2023-02-08T06:34:09.936Z,102832.45
2023-02-08T06:37:18.777Z,102832.00
2023-02-08T06:40:46.915Z,102840.73
2023-02-08T06:44:02.600Z,102844.44
2023-02-08T06:47:26.250Z,102850.60
2023-02-08T06:50:13.822Z,102848.90
2023-02-08T06:53:06.839Z,102855.27
2023-02-08T06:56:34.686Z,102855.05
2023-02-08T06:59:44.331Z,102861.51
2023-02-08T07:02:32.820Z,102860.73
2023-02-08T07:06:05.463Z,102861.00
2023-02-08T07:09:21.567Z,102860.94
2023-02-08T07:12:10.376Z,102866.73
2023-02-08T07:15:38.106Z,102867.56
2023-02-08T07:18:46.588Z,102870.17
2023-02-08T07:22:14.424Z,102876.18
2023-02-08T07:25:41.978Z,102881.13
2023-02-08T07:29:09.980Z,102886.89
2023-02-08T07:32:37.718Z,102893.92
2023-02-08T07:36:05.534Z,102897.68
2023-02-08T07:39:14.250Z,102900.56
2023-02-08T07:42:41.940Z,102909.75
2023-02-08T07:46:06.896Z,102913.41
2023-02-08T07:49:24.616Z,102914.42
2023-02-08T07:52:48.561Z,102914.86
2023-02-08T07:56:16.191Z,102921.42
2023-02-08T07:59:43.971Z,102921.61
2023-02-08T08:03:00.140Z,102924.01
2023-02-08T08:06:28.013Z,102926.27
2023-02-08T08:09:32.187Z,102922.15
2023-02-08T08:12:59.965Z,102920.33
2023-02-08T08:16:28.357Z,102920.13
2023-02-08T08:19:56.443Z,102924.17
2023-02-08T08:23:24.211Z,102929.27
2023-02-08T08:26:32.912Z,102936.83
2023-02-08T08:30:00.778Z,102937.80
2023-02-08T08:33:28.736Z,102931.02
2023-02-08T08:36:56.812Z,102933.04
2023-02-08T08:40:25.294Z,102931.83
2023-02-08T08:43:33.570Z,102933.44
2023-02-08T08:47:01.788Z,102935.82
2023-02-08T08:50:29.750Z,102936.40
2023-02-08T08:53:57.683Z,102934.88
2023-02-08T08:57:25.690Z,102937.84
2023-02-08T09:00:53.804Z,102944.46
2023-02-08T09:04:21.684Z,102946.99
2023-02-08T09:07:49.477Z,102951.48
2023-02-08T09:11:17.451Z,102960.58
2023-02-08T09:14:26.348Z,102960.62
2023-02-08T09:17:54.257Z,102966.52
2023-02-08T09:21:22.172Z,102970.80
2023-02-08T09:24:49.968Z,102975.42
2023-02-08T09:28:18.069Z,102978.29
2023-02-08T09:31:46.141Z,102979.02
2023-02-08T09:35:13.656Z,102978.67
2023-02-08T09:38:02.688Z,102979.39
2023-02-08T09:41:30.555Z,102978.51
2023-02-08T09:44:58.354Z,102980.10
2023-02-08T09:48:26.585Z,102979.92
2023-02-08T09:51:54.359Z,102980.45
2023-02-08T09:55:22.059Z,102975.83
2023-02-08T09:58:49.801Z,102967.96
2023-02-08T10:02:17.521Z,102967.02
2023-02-08T10:05:45.327Z,102965.71
2023-02-08T10:09:13.058Z,102967.59
2023-02-08T10:12:40.902Z,102963.13
2023-02-08T10:16:08.828Z,102963.64
2023-02-08T10:19:36.714Z,102958.59
2023-02-08T10:23:05.027Z,102963.25
2023-02-08T10:26:32.893Z,102964.95
2023-02-08T10:30:00.663Z,102966.96
2023-02-08T10:33:09.617Z,102970.89
2023-02-08T10:36:37.390Z,102967.44
2023-02-08T10:40:05.310Z,102964.19
2023-02-08T10:43:33.220Z,102959.97
2023-02-08T10:47:01.151Z,102967.35
2023-02-08T10:50:30.262Z,102969.56
2023-02-08T10:53:57.067Z,102968.47
2023-02-08T10:56:46.481Z,102970.83
2023-02-08T11:00:14.296Z,102977.65
2023-02-08T11:03:42.247Z,102978.30
2023-02-08T11:07:10.219Z,102980.94
2023-02-08T11:10:37.928Z,102981.90
2023-02-08T11:14:05.878Z,102982.98
2023-02-08T11:17:33.612Z,102985.36
2023-02-08T11:21:01.386Z,102984.15
2023-02-08T11:24:09.333Z,102984.00
2023-02-08T11:27:17.459Z,102987.91
2023-02-08T11:30:45.351Z,102988.71
2023-02-08T11:34:13.197Z,102980.54
2023-02-08T11:37:41.101Z,102980.35
2023-02-08T11:41:08.881Z,102983.36
2023-02-08T11:44:36.969Z,102991.98
2023-02-08T11:48:04.865Z,102989.53
2023-02-08T11:51:32.579Z,102992.84
2023-02-08T11:55:00.665Z,102989.73
2023-02-08T11:58:28.502Z,102987.81
2023-02-08T12:01:56.408Z,102987.33
2023-02-08T12:05:24.555Z,102986.02
2023-02-08T12:08:52.454Z,102987.42
2023-02-08T12:12:20.414Z,102987.55
2023-02-08T12:15:28.328Z,102985.02
2023-02-08T12:18:56.220Z,102982.29
2023-02-08T12:22:10.470Z,102979.92
2023-02-08T12:25:33.514Z,102979.21
2023-02-08T12:29:01.386Z,102980.02
2023-02-08T12:32:29.270Z,102972.48
2023-02-08T12:36:04.259Z,102976.23
2023-02-08T12:39:26.024Z,102973.23
2023-02-08T12:42:53.491Z,102972.48
2023-02-08T12:46:21.464Z,102975.89
2023-02-08T12:49:49.138Z,102975.86
2023-02-08T12:53:17.008Z,102973.27
2023-02-08T12:56:53.608Z,102969.89
2023-02-08T13:00:12.659Z,102971.75
2023-02-08T13:03:40.321Z,102969.03
2023-02-08T13:07:07.843Z,102972.61
2023-02-08T13:10:35.742Z,102973.34
2023-02-08T13:13:44.403Z,102972.06
2023-02-08T13:17:12.489Z,102975.11
2023-02-08T13:20:40.483Z,102979.49
2023-02-08T13:24:08.343Z,102977.91
2023-02-08T13:27:36.072Z,102979.55
2023-02-08T13:31:04.053Z,102978.70
2023-02-08T13:34:31.944Z,102975.73
2023-02-08T13:37:59.880Z,102977.14
2023-02-08T13:41:27.875Z,102977.98
2023-02-08T13:44:56.737Z,102973.52
2023-02-08T13:48:24.774Z,102971.98
2023-02-08T13:51:33.665Z,102974.64
2023-02-08T13:55:01.572Z,102973.23
2023-02-08T13:58:29.352Z,102975.58
2023-02-08T14:01:57.153Z,102973.27
2023-02-08T14:05:25.709Z,102969.63
2023-02-08T14:09:02.185Z,102972.15
2023-02-08T14:12:10.488Z,102967.16
2023-02-08T14:15:19.573Z,102968.83
2023-02-08T14:18:47.297Z,102976.82
2023-02-08T14:22:14.962Z,102971.27
2023-02-08T14:25:43.077Z,102972.30
2023-02-08T14:29:10.648Z,102975.05
2023-02-08T14:32:38.479Z,102975.37
2023-02-08T14:36:06.182Z,102978.94
2023-02-08T14:39:34.325Z,102975.15
2023-02-08T14:43:02.424Z,102973.33
2023-02-08T14:46:10.632Z,102972.70
2023-02-08T14:49:38.707Z,102971.37
2023-02-08T14:52:46.790Z,102973.33
2023-02-08T14:56:14.531Z,102978.61
2023-02-08T14:59:42.287Z,102977.11
2023-02-08T15:03:10.236Z,102972.70
2023-02-08T15:06:19.179Z,102978.70
2023-02-08T15:09:47.060Z,102975.61
2023-02-08T15:13:15.221Z,102974.56
2023-02-08T15:16:23.661Z,102972.11
2023-02-08T15:19:32.969Z,102971.83
2023-02-08T15:23:00.880Z,102969.54
2023-02-08T15:26:28.745Z,102968.27
2023-02-08T15:29:56.903Z,102972.02
2023-02-08T15:33:25.434Z,102972.17
2023-02-08T15:36:53.527Z,102974.52
2023-02-08T15:40:21.749Z,102981.80
2023-02-08T15:43:49.504Z,102981.55
2023-02-08T15:47:17.282Z,102984.13
2023-02-08T15:50:28.406Z,102983.33
2023-02-08T15:53:56.679Z,102982.32
2023-02-08T15:57:24.425Z,102987.19
2023-02-08T16:00:52.295Z,102989.38
2023-02-08T16:04:20.517Z,102993.14
2023-02-08T16:07:48.296Z,102991.40
2023-02-08T16:11:16.089Z,102998.71
2023-02-08T16:14:52.206Z,102998.20
2023-02-08T16:18:11.715Z,102998.90
2023-02-08T16:21:39.677Z,103003.89
2023-02-08T16:25:07.470Z,103009.23
2023-02-08T16:28:23.904Z,103014.39
2023-02-08T16:31:51.713Z,103014.54
2023-02-08T16:35:19.598Z,103021.65
2023-02-08T16:38:47.490Z,103022.54
2023-02-08T16:42:16.396Z,103022.16
2023-02-08T16:45:43.411Z,103025.88
2023-02-08T16:49:12.010Z,103023.92
2023-02-08T16:52:22.120Z,103026.59
2023-02-08T16:55:49.732Z,103030.13
2023-02-08T16:58:58.672Z,103033.85
2023-02-08T17:02:26.370Z,103036.48
2023-02-08T17:05:54.229Z,103043.21
2023-02-08T17:09:22.092Z,103042.51
2023-02-08T17:12:50.173Z,103040.90
2023-02-08T17:16:17.987Z,103038.41
2023-02-08T17:19:45.898Z,103042.30
2023-02-08T17:23:14.184Z,103043.35
2023-02-08T17:26:42.370Z,103043.33
2023-02-08T17:30:10.423Z,103040.83
2023-02-08T17:33:38.253Z,103038.14
2023-02-08T17:37:06.392Z,103046.31
2023-02-08T17:40:34.262Z,103052.17
2023-02-08T17:44:02.358Z,103058.19
2023-02-08T17:47:11.115Z,103060.88
2023-02-08T17:50:38.835Z,103060.69
2023-02-08T17:54:06.574Z,103063.33
2023-02-08T17:57:34.670Z,103061.73
2023-02-08T18:00:43.581Z,103064.36
2023-02-08T18:04:11.724Z,103067.02
2023-02-08T18:07:39.570Z,103066.31
2023-02-08T18:11:07.643Z,103062.58
2023-02-08T18:14:36.876Z,103062.40
2023-02-08T18:18:03.381Z,103062.02
2023-02-08T18:21:31.431Z,103060.98
2023-02-08T18:24:59.317Z,103063.80
2023-02-08T18:28:27.639Z,103060.92
2023-02-08T18:31:55.426Z,103061.26
2023-02-08T18:35:23.398Z,103057.69
2023-02-08T18:38:12.880Z,103058.39
2023-02-08T18:41:40.622Z,103066.84
2023-02-08T18:45:08.565Z,103060.60
2023-02-08T18:48:36.573Z,103058.47
2023-02-08T18:52:04.264Z,103058.45
2023-02-08T18:55:32.211Z,103060.40
2023-02-08T18:59:00.239Z,103058.61
2023-02-08T19:02:27.987Z,103058.59
2023-02-08T19:05:56.087Z,103056.77
2023-02-08T19:09:24.423Z,103054.85
2023-02-08T19:12:52.705Z,103057.81
2023-02-08T19:16:20.827Z,103059.33
2023-02-08T19:19:48.699Z,103058.02
2023-02-08T19:23:16.501Z,103059.24
2023-02-08T19:26:44.387Z,103059.91
2023-02-08T19:29:53.651Z,103057.90
2023-02-08T19:33:21.537Z,103059.61
2023-02-08T19:36:49.613Z,103058.89
2023-02-08T19:40:17.614Z,103057.99
2023-02-08T19:43:41.612Z,103059.58
2023-02-08T19:46:50.598Z,103059.73
2023-02-08T19:50:18.297Z,103055.80
2023-02-08T19:53:45.940Z,103049.57
2023-02-08T19:57:14.013Z,103047.05
2023-02-08T20:00:42.181Z,103047.21
2023-02-08T20:04:10.280Z,103046.26
2023-02-08T20:07:38.259Z,103048.34
2023-02-08T20:11:06.335Z,103052.55
2023-02-08T20:14:15.117Z,103053.02
2023-02-08T20:17:07.095Z,103055.45
2023-02-08T20:20:34.758Z,103055.02
2023-02-08T20:24:02.728Z,103059.38
2023-02-08T20:27:30.881Z,103058.06
2023-02-08T20:30:58.915Z,103061.38
2023-02-08T20:34:26.804Z,103062.58
2023-02-08T20:37:55.933Z,103062.17
2023-02-08T20:41:23.732Z,103056.48
2023-02-08T20:44:51.661Z,103056.06
2023-02-08T20:48:20.476Z,103054.45
2023-02-08T20:51:48.322Z,103055.99
2023-02-08T20:55:16.359Z,103059.64
2023-02-08T20:58:26.000Z,103061.86
2023-02-08T21:01:54.820Z,103064.73
2023-02-08T21:05:02.972Z,103063.42
2023-02-08T21:08:31.137Z,103063.15
2023-02-08T21:11:58.716Z,103065.70
2023-02-08T21:15:26.518Z,103064.55
2023-02-08T21:18:15.047Z,103064.31
2023-02-08T21:21:42.889Z,103063.20
2023-02-08T21:25:10.830Z,103064.02
2023-02-08T21:28:38.625Z,103062.54
2023-02-08T21:32:06.553Z,103065.73
2023-02-08T21:35:34.788Z,103069.33
2023-02-08T21:38:49.139Z,103066.69
2023-02-08T21:42:16.863Z,103067.40
2023-02-08T21:45:44.683Z,103064.05
2023-02-08T21:49:12.353Z,103064.40
2023-02-08T21:52:40.294Z,103067.05
2023-02-08T21:56:07.868Z,103069.88
2023-02-08T21:59:35.965Z,103075.03
2023-02-08T22:02:43.935Z,103076.10
2023-02-08T22:06:11.879Z,103077.55
2023-02-08T22:09:42.939Z,103077.87
2023-02-08T22:13:15.216Z,103081.26
2023-02-08T22:16:49.368Z,103085.86
2023-02-08T22:20:17.474Z,103082.70
2023-02-08T22:23:28.660Z,103083.59
2023-02-08T22:26:56.621Z,103084.98
2023-02-08T22:30:30.206Z,103087.60
2023-02-08T22:34:02.926Z,103084.77
2023-02-08T22:37:47.083Z,103079.45
2023-02-08T22:41:26.294Z,103076.02
2023-02-08T22:44:42.902Z,103077.02
2023-02-08T22:48:11.973Z,103079.39
2023-02-08T22:51:39.832Z,103077.23
2023-02-08T22:54:56.928Z,103076.01
2023-02-08T22:58:27.064Z,103073.36
2023-02-08T23:01:55.658Z,103066.10
2023-02-08T23:05:24.036Z,103062.20
2023-02-08T23:08:52.301Z,103063.80
2023-02-08T23:12:21.124Z,103058.15
2023-02-08T23:15:49.021Z,103059.20
2023-02-08T23:19:16.928Z,103054.80
2023-02-08T23:22:44.756Z,103053.33
2023-02-08T23:26:12.674Z,103048.73
2023-02-08T23:29:40.412Z,103043.91
2023-02-08T23:33:08.343Z,103040.64
2023-02-08T23:36:16.906Z,103042.39
2023-02-08T23:39:44.850Z,103041.49
2023-02-08T23:43:12.713Z,103044.70
2023-02-08T23:46:21.177Z,103038.09
2023-02-08T23:49:49.674Z,103035.41
2023-02-08T23:53:17.900Z,103036.11
2023-02-08T23:56:45.834Z,103033.93
2023-02-08T23:59:55.860Z,103033.20
